sensor_id;sensor_type;location;lat;lon;timestamp;temperature;humidity
26505;DHT22;19493;48.042;7.584;2022-10-16T00:01:15;14.70;99.90
26505;DHT22;19493;48.042;7.584;2022-10-16T00:03:43;14.70;99.90
26505;DHT22;19493;48.042;7.584;2022-10-16T00:06:10;14.70;99.90
26505;DHT22;19493;48.042;7.584;2022-10-16T00:08:36;14.60;99.90
26505;DHT22;19493;48.042;7.584;2022-10-16T00:11:07;14.60;99.90
26505;DHT22;19493;48.042;7.584;2022-10-16T00:13:35;14.60;99.90
26505;DHT22;19493;48.042;7.584;2022-10-16T00:16:01;14.60;99.90
26505;DHT22;19493;48.042;7.584;2022-10-16T00:18:28;14.50;99.90
26505;DHT22;19493;48.042;7.584;2022-10-16T00:20:54;14.50;99.90
26505;DHT22;19493;48.042;7.584;2022-10-16T00:23:20;14.50;99.90
26505;DHT22;19493;48.042;7.584;2022-10-16T00:25:55;14.50;99.90
26505;DHT22;19493;48.042;7.584;2022-10-16T00:28:21;14.50;99.90
26505;DHT22;19493;48.042;7.584;2022-10-16T00:30:46;14.50;99.90
26505;DHT22;19493;48.042;7.584;2022-10-16T00:33:12;14.50;99.90
26505;DHT22;19493;48.042;7.584;2022-10-16T00:35:37;14.40;99.90
26505;DHT22;19493;48.042;7.584;2022-10-16T00:38:03;14.40;99.90
26505;DHT22;19493;48.042;7.584;2022-10-16T00:40:29;14.30;99.90
26505;DHT22;19493;48.042;7.584;2022-10-16T00:42:54;14.30;99.90
26505;DHT22;19493;48.042;7.584;2022-10-16T00:45:23;14.30;99.90
26505;DHT22;19493;48.042;7.584;2022-10-16T00:47:51;14.30;99.90
26505;DHT22;19493;48.042;7.584;2022-10-16T00:50:30;14.20;99.90
26505;DHT22;19493;48.042;7.584;2022-10-16T00:52:57;14.20;99.90
26505;DHT22;19493;48.042;7.584;2022-10-16T00:55:24;14.20;99.90
26505;DHT22;19493;48.042;7.584;2022-10-16T00:57:52;14.20;99.90
26505;DHT22;19493;48.042;7.584;2022-10-16T01:00:21;14.30;99.90
26505;DHT22;19493;48.042;7.584;2022-10-16T01:02:59;14.30;99.90
26505;DHT22;19493;48.042;7.584;2022-10-16T01:06:18;14.30;99.90
26505;DHT22;19493;48.042;7.584;2022-10-16T01:09:02;14.30;99.90
26505;DHT22;19493;48.042;7.584;2022-10-16T01:12:01;14.30;99.90
26505;DHT22;19493;48.042;7.584;2022-10-16T01:15:25;14.30;99.90
26505;DHT22;19493;48.042;7.584;2022-10-16T01:17:35;14.30;99.90
26505;DHT22;19493;48.042;7.584;2022-10-16T01:23:33;14.20;99.90
26505;DHT22;19493;48.042;7.584;2022-10-16T01:29:07;14.10;99.90
26505;DHT22;19493;48.042;7.584;2022-10-16T01:31:36;14.10;99.90
26505;DHT22;19493;48.042;7.584;2022-10-16T01:34:07;14.10;99.90
26505;DHT22;19493;48.042;7.584;2022-10-16T01:36:57;14.10;99.90
26505;DHT22;19493;48.042;7.584;2022-10-16T01:39:30;14.10;99.90
26505;DHT22;19493;48.042;7.584;2022-10-16T01:42:05;14.10;99.90
26505;DHT22;19493;48.042;7.584;2022-10-16T01:44:33;14.10;99.90
26505;DHT22;19493;48.042;7.584;2022-10-16T01:47:00;14.10;99.90
26505;DHT22;19493;48.042;7.584;2022-10-16T01:49:29;14.10;99.90
26505;DHT22;19493;48.042;7.584;2022-10-16T01:51:59;14.10;99.90
26505;DHT22;19493;48.042;7.584;2022-10-16T01:54:31;14.10;99.90
26505;DHT22;19493;48.042;7.584;2022-10-16T01:56:58;14.10;99.90
26505;DHT22;19493;48.042;7.584;2022-10-16T01:59:26;14.20;99.90
26505;DHT22;19493;48.042;7.584;2022-10-16T02:01:58;14.20;99.90
26505;DHT22;19493;48.042;7.584;2022-10-16T02:04:34;14.20;99.90
26505;DHT22;19493;48.042;7.584;2022-10-16T02:07:01;14.30;99.90
26505;DHT22;19493;48.042;7.584;2022-10-16T02:09:27;14.30;99.90
26505;DHT22;19493;48.042;7.584;2022-10-16T02:11:55;14.30;99.90
26505;DHT22;19493;48.042;7.584;2022-10-16T02:14:22;14.30;99.90
26505;DHT22;19493;48.042;7.584;2022-10-16T02:16:50;14.30;99.90
26505;DHT22;19493;48.042;7.584;2022-10-16T02:19:17;14.30;99.90
26505;DHT22;19493;48.042;7.584;2022-10-16T02:21:51;14.20;99.90
26505;DHT22;19493;48.042;7.584;2022-10-16T02:26:49;14.20;99.90
26505;DHT22;19493;48.042;7.584;2022-10-16T02:29:18;14.20;99.90
26505;DHT22;19493;48.042;7.584;2022-10-16T02:31:47;14.10;99.90
26505;DHT22;19493;48.042;7.584;2022-10-16T02:34:15;14.10;99.90
26505;DHT22;19493;48.042;7.584;2022-10-16T02:36:42;14.20;99.90
26505;DHT22;19493;48.042;7.584;2022-10-16T02:39:09;14.20;99.90
26505;DHT22;19493;48.042;7.584;2022-10-16T02:41:36;14.20;99.90
26505;DHT22;19493;48.042;7.584;2022-10-16T02:44:01;14.20;99.90
26505;DHT22;19493;48.042;7.584;2022-10-16T02:46:27;14.20;99.90
26505;DHT22;19493;48.042;7.584;2022-10-16T02:48:52;14.20;99.90
26505;DHT22;19493;48.042;7.584;2022-10-16T02:51:18;14.20;99.90
26505;DHT22;19493;48.042;7.584;2022-10-16T02:53:44;14.30;99.90
26505;DHT22;19493;48.042;7.584;2022-10-16T02:56:09;14.30;99.90
26505;DHT22;19493;48.042;7.584;2022-10-16T02:58:35;14.30;99.90
26505;DHT22;19493;48.042;7.584;2022-10-16T03:01:01;14.20;99.90
26505;DHT22;19493;48.042;7.584;2022-10-16T03:03:27;14.20;99.90
26505;DHT22;19493;48.042;7.584;2022-10-16T03:05:52;14.20;99.90
26505;DHT22;19493;48.042;7.584;2022-10-16T03:08:18;14.20;99.90
26505;DHT22;19493;48.042;7.584;2022-10-16T03:10:48;14.20;99.90
26505;DHT22;19493;48.042;7.584;2022-10-16T03:13:14;14.30;99.90
26505;DHT22;19493;48.042;7.584;2022-10-16T03:15:40;14.30;99.90
26505;DHT22;19493;48.042;7.584;2022-10-16T03:18:05;14.30;99.90
26505;DHT22;19493;48.042;7.584;2022-10-16T03:20:31;14.30;99.90
26505;DHT22;19493;48.042;7.584;2022-10-16T03:22:56;14.30;99.90
26505;DHT22;19493;48.042;7.584;2022-10-16T03:25:22;14.30;99.90
26505;DHT22;19493;48.042;7.584;2022-10-16T03:27:47;14.30;99.90
26505;DHT22;19493;48.042;7.584;2022-10-16T03:30:13;14.30;99.90
26505;DHT22;19493;48.042;7.584;2022-10-16T03:32:38;14.30;99.90
26505;DHT22;19493;48.042;7.584;2022-10-16T03:35:04;14.30;99.90
26505;DHT22;19493;48.042;7.584;2022-10-16T03:37:30;14.30;99.90
26505;DHT22;19493;48.042;7.584;2022-10-16T03:39:56;14.20;99.90
26505;DHT22;19493;48.042;7.584;2022-10-16T03:42:21;14.20;99.90
26505;DHT22;19493;48.042;7.584;2022-10-16T03:44:47;14.20;99.90
26505;DHT22;19493;48.042;7.584;2022-10-16T03:47:12;14.20;99.90
26505;DHT22;19493;48.042;7.584;2022-10-16T03:49:38;14.20;99.90
26505;DHT22;19493;48.042;7.584;2022-10-16T03:52:04;14.10;99.90
26505;DHT22;19493;48.042;7.584;2022-10-16T03:54:29;14.20;99.90
26505;DHT22;19493;48.042;7.584;2022-10-16T03:56:55;14.10;99.90
26505;DHT22;19493;48.042;7.584;2022-10-16T03:59:20;14.10;99.90
26505;DHT22;19493;48.042;7.584;2022-10-16T04:01:46;14.10;99.90
26505;DHT22;19493;48.042;7.584;2022-10-16T04:04:11;14.10;99.90
26505;DHT22;19493;48.042;7.584;2022-10-16T04:06:37;14.10;99.90
26505;DHT22;19493;48.042;7.584;2022-10-16T04:09:02;14.10;99.90
26505;DHT22;19493;48.042;7.584;2022-10-16T04:11:28;14.10;99.90
26505;DHT22;19493;48.042;7.584;2022-10-16T04:13:55;14.20;99.90
26505;DHT22;19493;48.042;7.584;2022-10-16T04:16:20;14.20;99.90
26505;DHT22;19493;48.042;7.584;2022-10-16T04:18:46;14.10;99.90
26505;DHT22;19493;48.042;7.584;2022-10-16T04:21:11;14.20;99.90
26505;DHT22;19493;48.042;7.584;2022-10-16T04:23:37;14.20;99.90
26505;DHT22;19493;48.042;7.584;2022-10-16T04:26:03;14.20;99.90
26505;DHT22;19493;48.042;7.584;2022-10-16T04:28:28;14.10;99.90
26505;DHT22;19493;48.042;7.584;2022-10-16T04:30:54;14.10;99.90
26505;DHT22;19493;48.042;7.584;2022-10-16T04:33:20;14.10;99.90
26505;DHT22;19493;48.042;7.584;2022-10-16T04:35:45;14.10;99.90
26505;DHT22;19493;48.042;7.584;2022-10-16T04:38:11;14.10;99.90
26505;DHT22;19493;48.042;7.584;2022-10-16T04:40:36;14.10;99.90
26505;DHT22;19493;48.042;7.584;2022-10-16T04:43:05;14.10;99.90
26505;DHT22;19493;48.042;7.584;2022-10-16T04:45:31;14.10;99.90
26505;DHT22;19493;48.042;7.584;2022-10-16T04:47:58;14.00;99.90
26505;DHT22;19493;48.042;7.584;2022-10-16T04:50:23;14.00;99.90
26505;DHT22;19493;48.042;7.584;2022-10-16T04:52:49;13.90;99.90
26505;DHT22;19493;48.042;7.584;2022-10-16T04:55:14;13.90;99.90
26505;DHT22;19493;48.042;7.584;2022-10-16T04:57:40;13.90;99.90
26505;DHT22;19493;48.042;7.584;2022-10-16T05:00:07;13.90;99.90
26505;DHT22;19493;48.042;7.584;2022-10-16T05:02:33;13.90;99.90
26505;DHT22;19493;48.042;7.584;2022-10-16T05:04:59;14.00;99.90
26505;DHT22;19493;48.042;7.584;2022-10-16T05:07:24;14.00;99.90
26505;DHT22;19493;48.042;7.584;2022-10-16T05:09:50;14.00;99.90
26505;DHT22;19493;48.042;7.584;2022-10-16T05:12:16;14.10;99.90
26505;DHT22;19493;48.042;7.584;2022-10-16T05:14:41;14.10;99.90
26505;DHT22;19493;48.042;7.584;2022-10-16T05:17:07;14.10;99.90
26505;DHT22;19493;48.042;7.584;2022-10-16T05:19:32;14.10;99.90
26505;DHT22;19493;48.042;7.584;2022-10-16T05:21:58;14.10;99.90
26505;DHT22;19493;48.042;7.584;2022-10-16T05:24:24;14.10;99.90
26505;DHT22;19493;48.042;7.584;2022-10-16T05:26:50;14.10;99.90
26505;DHT22;19493;48.042;7.584;2022-10-16T05:29:15;14.10;99.90
26505;DHT22;19493;48.042;7.584;2022-10-16T05:31:41;14.10;99.90
26505;DHT22;19493;48.042;7.584;2022-10-16T05:34:07;14.10;99.90
26505;DHT22;19493;48.042;7.584;2022-10-16T05:36:32;14.00;99.90
26505;DHT22;19493;48.042;7.584;2022-10-16T05:38:58;14.00;99.90
26505;DHT22;19493;48.042;7.584;2022-10-16T05:41:23;14.00;99.90
26505;DHT22;19493;48.042;7.584;2022-10-16T05:43:51;14.00;99.90
26505;DHT22;19493;48.042;7.584;2022-10-16T05:46:16;14.00;99.90
26505;DHT22;19493;48.042;7.584;2022-10-16T05:48:42;14.00;99.90
26505;DHT22;19493;48.042;7.584;2022-10-16T05:51:10;14.00;99.90
26505;DHT22;19493;48.042;7.584;2022-10-16T05:53:37;14.00;99.90
26505;DHT22;19493;48.042;7.584;2022-10-16T05:56:04;14.00;99.90
26505;DHT22;19493;48.042;7.584;2022-10-16T05:58:33;14.00;99.90
26505;DHT22;19493;48.042;7.584;2022-10-16T06:01:04;14.00;99.90
26505;DHT22;19493;48.042;7.584;2022-10-16T06:03:30;14.00;99.90
26505;DHT22;19493;48.042;7.584;2022-10-16T06:05:56;14.00;99.90
26505;DHT22;19493;48.042;7.584;2022-10-16T06:08:22;14.10;99.90
26505;DHT22;19493;48.042;7.584;2022-10-16T06:10:48;14.10;99.90
26505;DHT22;19493;48.042;7.584;2022-10-16T06:13:14;14.10;99.90
26505;DHT22;19493;48.042;7.584;2022-10-16T06:15:41;14.10;99.90
26505;DHT22;19493;48.042;7.584;2022-10-16T06:18:10;14.10;99.90
26505;DHT22;19493;48.042;7.584;2022-10-16T06:20:37;14.10;99.90
26505;DHT22;19493;48.042;7.584;2022-10-16T06:23:03;14.10;99.90
26505;DHT22;19493;48.042;7.584;2022-10-16T06:25:30;14.10;99.90
26505;DHT22;19493;48.042;7.584;2022-10-16T06:27:56;14.10;99.90
26505;DHT22;19493;48.042;7.584;2022-10-16T06:30:21;14.20;99.90
26505;DHT22;19493;48.042;7.584;2022-10-16T06:32:48;14.20;99.90
26505;DHT22;19493;48.042;7.584;2022-10-16T06:35:14;14.20;99.90
26505;DHT22;19493;48.042;7.584;2022-10-16T06:37:39;14.20;99.90
26505;DHT22;19493;48.042;7.584;2022-10-16T06:40:05;14.20;99.90
26505;DHT22;19493;48.042;7.584;2022-10-16T06:42:31;14.20;99.90
26505;DHT22;19493;48.042;7.584;2022-10-16T06:44:56;14.20;99.90
26505;DHT22;19493;48.042;7.584;2022-10-16T06:47:22;14.30;99.90
26505;DHT22;19493;48.042;7.584;2022-10-16T06:49:47;14.30;99.90
26505;DHT22;19493;48.042;7.584;2022-10-16T06:52:13;14.40;99.90
26505;DHT22;19493;48.042;7.584;2022-10-16T06:54:38;14.40;99.90
26505;DHT22;19493;48.042;7.584;2022-10-16T06:57:04;14.50;99.90
26505;DHT22;19493;48.042;7.584;2022-10-16T06:59:30;14.50;99.90
26505;DHT22;19493;48.042;7.584;2022-10-16T07:01:55;14.50;99.90
26505;DHT22;19493;48.042;7.584;2022-10-16T07:04:21;14.60;99.90
26505;DHT22;19493;48.042;7.584;2022-10-16T07:06:46;14.60;99.90
26505;DHT22;19493;48.042;7.584;2022-10-16T07:09:12;14.70;99.90
26505;DHT22;19493;48.042;7.584;2022-10-16T07:11:39;14.70;99.90
26505;DHT22;19493;48.042;7.584;2022-10-16T07:14:09;14.70;99.90
26505;DHT22;19493;48.042;7.584;2022-10-16T07:16:37;14.80;99.90
26505;DHT22;19493;48.042;7.584;2022-10-16T07:19:03;14.80;99.90
26505;DHT22;19493;48.042;7.584;2022-10-16T07:21:31;14.80;99.90
26505;DHT22;19493;48.042;7.584;2022-10-16T07:24:01;14.90;99.90
26505;DHT22;19493;48.042;7.584;2022-10-16T07:26:28;14.90;99.90
26505;DHT22;19493;48.042;7.584;2022-10-16T07:28:55;15.00;99.90
26505;DHT22;19493;48.042;7.584;2022-10-16T07:31:22;15.10;99.90
26505;DHT22;19493;48.042;7.584;2022-10-16T07:33:48;15.20;99.90
26505;DHT22;19493;48.042;7.584;2022-10-16T07:36:19;15.30;99.90
26505;DHT22;19493;48.042;7.584;2022-10-16T07:38:45;15.30;99.90
26505;DHT22;19493;48.042;7.584;2022-10-16T07:41:14;15.30;99.90
26505;DHT22;19493;48.042;7.584;2022-10-16T07:43:40;15.40;99.90
26505;DHT22;19493;48.042;7.584;2022-10-16T07:46:07;15.40;99.90
26505;DHT22;19493;48.042;7.584;2022-10-16T07:48:33;15.60;99.90
26505;DHT22;19493;48.042;7.584;2022-10-16T07:51:01;15.70;99.90
26505;DHT22;19493;48.042;7.584;2022-10-16T07:53:28;15.90;99.90
26505;DHT22;19493;48.042;7.584;2022-10-16T07:56:00;16.00;99.90
26505;DHT22;19493;48.042;7.584;2022-10-16T07:58:28;16.20;99.90
26505;DHT22;19493;48.042;7.584;2022-10-16T08:00:54;16.30;99.90
26505;DHT22;19493;48.042;7.584;2022-10-16T08:03:19;16.30;99.90
26505;DHT22;19493;48.042;7.584;2022-10-16T08:05:45;16.40;99.90
26505;DHT22;19493;48.042;7.584;2022-10-16T08:08:13;16.50;99.90
26505;DHT22;19493;48.042;7.584;2022-10-16T08:10:39;16.60;99.90
26505;DHT22;19493;48.042;7.584;2022-10-16T08:13:05;16.70;99.90
26505;DHT22;19493;48.042;7.584;2022-10-16T08:15:31;16.80;99.90
26505;DHT22;19493;48.042;7.584;2022-10-16T08:18:01;16.90;99.90
26505;DHT22;19493;48.042;7.584;2022-10-16T08:20:27;17.00;99.90
26505;DHT22;19493;48.042;7.584;2022-10-16T08:22:53;17.10;99.90
26505;DHT22;19493;48.042;7.584;2022-10-16T08:25:20;17.10;99.90
26505;DHT22;19493;48.042;7.584;2022-10-16T08:27:46;17.00;99.90
26505;DHT22;19493;48.042;7.584;2022-10-16T08:30:12;17.00;99.90
26505;DHT22;19493;48.042;7.584;2022-10-16T08:32:38;17.00;99.90
26505;DHT22;19493;48.042;7.584;2022-10-16T08:35:03;17.10;99.90
26505;DHT22;19493;48.042;7.584;2022-10-16T08:37:33;17.10;99.90
26505;DHT22;19493;48.042;7.584;2022-10-16T08:39:59;17.10;99.90
26505;DHT22;19493;48.042;7.584;2022-10-16T08:50:39;17.30;99.90
26505;DHT22;19493;48.042;7.584;2022-10-16T08:53:05;17.50;99.90
26505;DHT22;19493;48.042;7.584;2022-10-16T08:55:42;17.80;99.90
26505;DHT22;19493;48.042;7.584;2022-10-16T08:58:19;18.10;99.90
26505;DHT22;19493;48.042;7.584;2022-10-16T09:00:54;18.40;99.90
26505;DHT22;19493;48.042;7.584;2022-10-16T09:06:09;18.70;99.90
26505;DHT22;19493;48.042;7.584;2022-10-16T09:16:58;19.30;99.90
26505;DHT22;19493;48.042;7.584;2022-10-16T09:19:37;19.50;99.90
26505;DHT22;19493;48.042;7.584;2022-10-16T09:22:17;20.00;99.90
26505;DHT22;19493;48.042;7.584;2022-10-16T09:24:43;21.30;99.90
26505;DHT22;19493;48.042;7.584;2022-10-16T09:27:14;23.90;99.90
26505;DHT22;19493;48.042;7.584;2022-10-16T09:29:40;26.20;99.90
26505;DHT22;19493;48.042;7.584;2022-10-16T09:32:18;26.70;99.90
26505;DHT22;19493;48.042;7.584;2022-10-16T09:34:49;25.70;99.90
26505;DHT22;19493;48.042;7.584;2022-10-16T09:37:19;24.90;99.90
26505;DHT22;19493;48.042;7.584;2022-10-16T09:39:50;24.00;99.90
26505;DHT22;19493;48.042;7.584;2022-10-16T09:42:22;23.40;99.90
26505;DHT22;19493;48.042;7.584;2022-10-16T09:44:53;22.80;99.90
26505;DHT22;19493;48.042;7.584;2022-10-16T09:47:24;22.60;99.90
26505;DHT22;19493;48.042;7.584;2022-10-16T09:52:19;22.70;99.90
26505;DHT22;19493;48.042;7.584;2022-10-16T09:54:59;22.90;99.90
26505;DHT22;19493;48.042;7.584;2022-10-16T09:57:26;22.90;99.90
26505;DHT22;19493;48.042;7.584;2022-10-16T09:59:56;22.80;99.90
26505;DHT22;19493;48.042;7.584;2022-10-16T10:02:34;23.00;99.90
26505;DHT22;19493;48.042;7.584;2022-10-16T10:05:01;23.40;99.90
26505;DHT22;19493;48.042;7.584;2022-10-16T10:07:37;23.20;99.90
26505;DHT22;19493;48.042;7.584;2022-10-16T10:10:18;23.10;99.90
26505;DHT22;19493;48.042;7.584;2022-10-16T10:12:45;22.90;99.90
26505;DHT22;19493;48.042;7.584;2022-10-16T10:15:11;22.90;99.90
26505;DHT22;19493;48.042;7.584;2022-10-16T10:17:52;23.00;99.90
26505;DHT22;19493;48.042;7.584;2022-10-16T10:20:27;23.00;99.90
26505;DHT22;19493;48.042;7.584;2022-10-16T10:22:54;23.10;99.90
26505;DHT22;19493;48.042;7.584;2022-10-16T10:25:42;23.20;99.90
26505;DHT22;19493;48.042;7.584;2022-10-16T10:31:20;23.40;99.90
26505;DHT22;19493;48.042;7.584;2022-10-16T10:36:37;23.90;99.90
26505;DHT22;19493;48.042;7.584;2022-10-16T10:45:21;24.70;99.90
26505;DHT22;19493;48.042;7.584;2022-10-16T10:56:20;24.10;99.90
26505;DHT22;19493;48.042;7.584;2022-10-16T10:59:05;24.00;99.90
26505;DHT22;19493;48.042;7.584;2022-10-16T11:04:34;24.40;99.80
26505;DHT22;19493;48.042;7.584;2022-10-16T11:07:05;24.70;97.60
26505;DHT22;19493;48.042;7.584;2022-10-16T11:09:40;25.20;95.40
26505;DHT22;19493;48.042;7.584;2022-10-16T11:12:19;25.50;93.50
26505;DHT22;19493;48.042;7.584;2022-10-16T11:14:50;25.70;91.50
26505;DHT22;19493;48.042;7.584;2022-10-16T11:17:25;25.90;88.00
26505;DHT22;19493;48.042;7.584;2022-10-16T11:20:18;26.10;87.60
26505;DHT22;19493;48.042;7.584;2022-10-16T11:22:50;26.40;88.50
26505;DHT22;19493;48.042;7.584;2022-10-16T11:25:30;26.80;86.40
26505;DHT22;19493;48.042;7.584;2022-10-16T11:28:16;27.10;87.10
26505;DHT22;19493;48.042;7.584;2022-10-16T11:44:14;34.80;52.80
26505;DHT22;19493;48.042;7.584;2022-10-16T11:46:42;35.70;46.90
26505;DHT22;19493;48.042;7.584;2022-10-16T11:49:16;33.90;46.70
26505;DHT22;19493;48.042;7.584;2022-10-16T11:51:45;32.40;48.80
26505;DHT22;19493;48.042;7.584;2022-10-16T11:56:51;30.10;52.70
26505;DHT22;19493;48.042;7.584;2022-10-16T11:59:30;29.20;54.00
26505;DHT22;19493;48.042;7.584;2022-10-16T12:04:51;28.20;56.60
26505;DHT22;19493;48.042;7.584;2022-10-16T12:07:24;27.90;56.70
26505;DHT22;19493;48.042;7.584;2022-10-16T12:09:53;28.00;55.90
26505;DHT22;19493;48.042;7.584;2022-10-16T12:12:38;28.20;55.40
26505;DHT22;19493;48.042;7.584;2022-10-16T12:15:21;28.60;55.10
26505;DHT22;19493;48.042;7.584;2022-10-16T12:17:47;29.30;53.00
26505;DHT22;19493;48.042;7.584;2022-10-16T12:25:24;32.20;47.80
26505;DHT22;19493;48.042;7.584;2022-10-16T12:30:30;35.50;42.50
26505;DHT22;19493;48.042;7.584;2022-10-16T12:32:58;36.10;42.00
26505;DHT22;19493;48.042;7.584;2022-10-16T12:35:28;37.30;41.10
26505;DHT22;19493;48.042;7.584;2022-10-16T12:38:07;38.50;37.90
26505;DHT22;19493;48.042;7.584;2022-10-16T12:40:37;38.50;35.00
26505;DHT22;19493;48.042;7.584;2022-10-16T12:46:33;36.80;35.80
26505;DHT22;19493;48.042;7.584;2022-10-16T12:51:38;37.20;35.90
26505;DHT22;19493;48.042;7.584;2022-10-16T12:57:49;38.00;34.90
26505;DHT22;19493;48.042;7.584;2022-10-16T13:09:19;35.70;36.00
26505;DHT22;19493;48.042;7.584;2022-10-16T13:14:48;36.30;37.10
26505;DHT22;19493;48.042;7.584;2022-10-16T13:17:40;35.70;36.80
26505;DHT22;19493;48.042;7.584;2022-10-16T13:23:16;30.90;42.40
26505;DHT22;19493;48.042;7.584;2022-10-16T13:25:57;29.40;45.40
26505;DHT22;19493;48.042;7.584;2022-10-16T13:28:28;28.50;47.30
26505;DHT22;19493;48.042;7.584;2022-10-16T13:30:57;27.70;48.10
26505;DHT22;19493;48.042;7.584;2022-10-16T13:33:36;27.20;49.80
26505;DHT22;19493;48.042;7.584;2022-10-16T13:36:04;27.10;49.90
26505;DHT22;19493;48.042;7.584;2022-10-16T13:38:32;27.00;48.90
26505;DHT22;19493;48.042;7.584;2022-10-16T13:41:16;26.70;49.50
26505;DHT22;19493;48.042;7.584;2022-10-16T13:43:51;26.70;50.70
26505;DHT22;19493;48.042;7.584;2022-10-16T13:46:21;26.70;50.00
26505;DHT22;19493;48.042;7.584;2022-10-16T13:49:05;26.60;50.20
26505;DHT22;19493;48.042;7.584;2022-10-16T13:51:32;26.70;51.20
26505;DHT22;19493;48.042;7.584;2022-10-16T13:53:58;26.70;49.70
26505;DHT22;19493;48.042;7.584;2022-10-16T13:56:29;26.80;49.00
26505;DHT22;19493;48.042;7.584;2022-10-16T13:59:06;26.70;48.90
26505;DHT22;19493;48.042;7.584;2022-10-16T14:01:35;26.50;48.60
26505;DHT22;19493;48.042;7.584;2022-10-16T14:04:08;26.50;49.10
26505;DHT22;19493;48.042;7.584;2022-10-16T14:06:35;26.50;49.50
26505;DHT22;19493;48.042;7.584;2022-10-16T14:11:32;26.50;48.90
26505;DHT22;19493;48.042;7.584;2022-10-16T14:13:58;26.50;48.30
26505;DHT22;19493;48.042;7.584;2022-10-16T14:16:29;26.50;48.90
26505;DHT22;19493;48.042;7.584;2022-10-16T14:21:23;26.50;48.30
26505;DHT22;19493;48.042;7.584;2022-10-16T14:23:49;26.50;48.50
26505;DHT22;19493;48.042;7.584;2022-10-16T14:26:18;26.60;48.40
26505;DHT22;19493;48.042;7.584;2022-10-16T14:28:45;26.50;48.60
26505;DHT22;19493;48.042;7.584;2022-10-16T14:33:49;26.10;49.50
26505;DHT22;19493;48.042;7.584;2022-10-16T14:36:16;26.00;49.60
26505;DHT22;19493;48.042;7.584;2022-10-16T14:39:14;25.90;50.00
26505;DHT22;19493;48.042;7.584;2022-10-16T14:41:46;26.00;50.40
26505;DHT22;19493;48.042;7.584;2022-10-16T14:44:12;26.10;50.60
26505;DHT22;19493;48.042;7.584;2022-10-16T14:46:40;26.20;50.70
26505;DHT22;19493;48.042;7.584;2022-10-16T14:51:36;26.20;51.10
26505;DHT22;19493;48.042;7.584;2022-10-16T14:54:02;26.10;51.10
26505;DHT22;19493;48.042;7.584;2022-10-16T14:59:16;27.10;50.10
26505;DHT22;19493;48.042;7.584;2022-10-16T15:01:44;27.50;48.90
26505;DHT22;19493;48.042;7.584;2022-10-16T15:04:12;27.20;48.90
26505;DHT22;19493;48.042;7.584;2022-10-16T15:06:37;26.80;49.50
26505;DHT22;19493;48.042;7.584;2022-10-16T15:09:03;26.50;50.80
26505;DHT22;19493;48.042;7.584;2022-10-16T15:11:29;26.10;51.60
26505;DHT22;19493;48.042;7.584;2022-10-16T15:13:57;25.90;51.80
26505;DHT22;19493;48.042;7.584;2022-10-16T15:16:22;25.80;52.90
26505;DHT22;19493;48.042;7.584;2022-10-16T15:18:48;25.60;52.80
26505;DHT22;19493;48.042;7.584;2022-10-16T15:23:49;25.30;54.10
26505;DHT22;19493;48.042;7.584;2022-10-16T15:26:15;25.20;54.40
26505;DHT22;19493;48.042;7.584;2022-10-16T15:28:41;25.10;54.80
26505;DHT22;19493;48.042;7.584;2022-10-16T15:31:07;25.00;54.80
26505;DHT22;19493;48.042;7.584;2022-10-16T15:33:32;24.90;55.40
26505;DHT22;19493;48.042;7.584;2022-10-16T15:36:00;24.80;56.10
26505;DHT22;19493;48.042;7.584;2022-10-16T15:38:27;24.70;56.10
26505;DHT22;19493;48.042;7.584;2022-10-16T15:40:53;24.60;56.90
26505;DHT22;19493;48.042;7.584;2022-10-16T15:43:19;24.60;57.00
26505;DHT22;19493;48.042;7.584;2022-10-16T15:45:58;24.40;57.70
26505;DHT22;19493;48.042;7.584;2022-10-16T15:48:23;24.20;58.60
26505;DHT22;19493;48.042;7.584;2022-10-16T15:50:49;24.00;60.10
26505;DHT22;19493;48.042;7.584;2022-10-16T15:53:14;23.80;60.80
26505;DHT22;19493;48.042;7.584;2022-10-16T15:55:40;23.60;61.70
26505;DHT22;19493;48.042;7.584;2022-10-16T15:58:05;23.50;61.90
26505;DHT22;19493;48.042;7.584;2022-10-16T16:00:31;23.40;62.80
26505;DHT22;19493;48.042;7.584;2022-10-16T16:02:57;23.30;64.40
26505;DHT22;19493;48.042;7.584;2022-10-16T16:05:22;23.20;66.10
26505;DHT22;19493;48.042;7.584;2022-10-16T16:07:48;23.00;67.50
26505;DHT22;19493;48.042;7.584;2022-10-16T16:10:15;22.90;67.90
26505;DHT22;19493;48.042;7.584;2022-10-16T16:12:40;22.80;69.00
26505;DHT22;19493;48.042;7.584;2022-10-16T16:15:07;22.70;70.50
26505;DHT22;19493;48.042;7.584;2022-10-16T16:17:34;22.50;72.10
26505;DHT22;19493;48.042;7.584;2022-10-16T16:20:01;22.30;74.10
26505;DHT22;19493;48.042;7.584;2022-10-16T16:22:27;22.20;75.90
26505;DHT22;19493;48.042;7.584;2022-10-16T16:24:53;22.00;78.30
26505;DHT22;19493;48.042;7.584;2022-10-16T16:27:18;21.90;81.40
26505;DHT22;19493;48.042;7.584;2022-10-16T16:29:45;21.80;84.90
26505;DHT22;19493;48.042;7.584;2022-10-16T16:32:11;21.70;89.70
26505;DHT22;19493;48.042;7.584;2022-10-16T16:34:36;21.60;92.00
26505;DHT22;19493;48.042;7.584;2022-10-16T16:37:02;21.40;94.20
26505;DHT22;19493;48.042;7.584;2022-10-16T16:39:28;21.30;96.00
26505;DHT22;19493;48.042;7.584;2022-10-16T16:41:55;21.20;99.10
26505;DHT22;19493;48.042;7.584;2022-10-16T16:44:22;21.00;99.90
26505;DHT22;19493;48.042;7.584;2022-10-16T16:46:47;20.90;99.90
26505;DHT22;19493;48.042;7.584;2022-10-16T16:49:13;20.80;99.90
26505;DHT22;19493;48.042;7.584;2022-10-16T16:51:39;20.70;99.90
26505;DHT22;19493;48.042;7.584;2022-10-16T16:54:05;20.60;99.90
26505;DHT22;19493;48.042;7.584;2022-10-16T16:56:32;20.50;99.90
26505;DHT22;19493;48.042;7.584;2022-10-16T16:58:58;20.40;99.90
26505;DHT22;19493;48.042;7.584;2022-10-16T17:01:26;20.30;99.90
26505;DHT22;19493;48.042;7.584;2022-10-16T17:03:53;20.10;99.90
26505;DHT22;19493;48.042;7.584;2022-10-16T17:06:20;20.00;99.90
26505;DHT22;19493;48.042;7.584;2022-10-16T17:08:46;19.90;99.90
26505;DHT22;19493;48.042;7.584;2022-10-16T17:11:15;19.80;99.90
26505;DHT22;19493;48.042;7.584;2022-10-16T17:13:41;19.70;99.90
26505;DHT22;19493;48.042;7.584;2022-10-16T17:16:08;19.60;99.90
26505;DHT22;19493;48.042;7.584;2022-10-16T17:18:34;19.60;99.90
26505;DHT22;19493;48.042;7.584;2022-10-16T17:21:02;19.50;99.90
26505;DHT22;19493;48.042;7.584;2022-10-16T17:23:29;19.40;99.90
26505;DHT22;19493;48.042;7.584;2022-10-16T17:25:54;19.30;99.90
26505;DHT22;19493;48.042;7.584;2022-10-16T17:28:20;19.30;99.90
26505;DHT22;19493;48.042;7.584;2022-10-16T17:30:46;19.20;99.90
26505;DHT22;19493;48.042;7.584;2022-10-16T17:33:13;19.20;99.90
26505;DHT22;19493;48.042;7.584;2022-10-16T17:35:41;19.20;99.90
26505;DHT22;19493;48.042;7.584;2022-10-16T17:38:06;19.10;99.90
26505;DHT22;19493;48.042;7.584;2022-10-16T17:40:33;19.00;99.90